Ceffco, Illinois
Current Conditions -  °F | °C
As of 5:55 PM on Monday 22 Dec 2014 (Local Time) from KCWI Reporting Station
Overcast Overcast  
Wind Chill: 30°   Ceiling: 300
Heat Index: 37°   Visibility: 1.7mi
Dew Point: 36°   Wind: 12mph
Humidity: 93%   Direction: 110°ESE
Pressure: 29.6"   Gusts: NA
Location:  41.7361°N, 90.2145°W
Report Text: KCWI 222355Z AUTO 11010KT 1 3/4SM OVC003 03/02 A2960 RMK AO1 60004 10030 20020 400300010 57007
Loading
Personal Weather Stations






























Interactive Weather Map New forecast layout! Learn more

10-Day Weather Forecast

Advertisements
Track Severe Weather on mobile